トロント/ピアソン の空港の天気 - METARとTAF

トロント・ピアソン国際空港 ( CYYZ / YYZ ) - カナダ オンタリオ州トロント
飛行場実況気象(Metar)
観測時間08/22 12:00 EDT (08/22 16:00 UTC)
風向・風速北西 7m/s 瞬間風速12m/s
視程10km以上
天気現象
少しの雲 雲底高度 1220m
全天の8割程度の雲 雲底高度 5490m
全天の8割程度の雲 雲底高度 7620m
気温22℃
湿度46%
気圧1014.4hPa
METARCYYZ 221600Z 32014G23KT 15SM FEW040 BKN180 BKN250 22/10 A2996 RMK CU1AC4CI1 CI TR SLP144 DENSITY ALT 1500FT
過去の天気等 Google飛行場航空写真 Wunderground天気予報

過去48時間のMETAR

飛行場予報(TAF)
発表時間: 8/22 10:44 EDT (8/22 14:44 UTC)
予報対象時間: 22日11時 EDT ~ 23日14時 EDT
風向・風速北西 5m/s 瞬間風速 10m/s
視程10km以上
少しの雲 雲底高度 1220m
全天の4割程度の雲 雲底高度 5490m
全天の8割程度の雲 雲底高度 7620m
22日14時 EDT から
風向・風速西北西 5m/s 瞬間風速 10m/s
視程10km以上
少しの雲 雲底高度 1520m
全天の8割程度の雲 雲底高度 7620m
22日20時 EDT から
風向・風速北北西 4m/s
視程10km以上
なし
TAF CYYZ 221444Z 2215/2318 31010G20KT P6SM FEW040 SCT180 BKN250
FM221800 30010G20KT P6SM FEW050 BKN250
FM230000 34008KT P6SM SKC RMK NXT FCST BY 221800Z